Time;durP1;ratioP1;P1;durP2;ratioP2;P2;SDS_P1;SDS_P2;PMS_P1;PMS_P2;Temp;Humidity;BMP_temperature;BMP_pressure;BME280_temperature;BME280_humidity;BME280_pressure;Samples;Min_cycle;Max_cycle;Signal;HPM_P1;HPM_P2
2022/09/03 00:00:15;;;;;;;1.63;1.50;;;17.70;99.90;;;;;;5038946;28;20384;-81
2022/09/03 00:03:18;;;;;;;6.20;2.10;;;17.50;99.90;;;;;;5038723;28;20404;-81
2022/09/03 00:06:16;;;;;;;3.10;2.30;;;17.50;99.90;;;;;;5038909;28;20379;-81
2022/09/03 00:09:14;;;;;;;3.53;2.30;;;17.40;99.90;;;;;;5039091;28;20418;-81
2022/09/03 00:12:09;;;;;;;1.80;1.70;;;17.50;99.90;;;;;;5036816;28;20388;-81
2022/09/03 00:15:03;;;;;;;1.37;1.27;;;17.40;99.90;;;;;;5036221;28;20503;-81
2022/09/03 00:17:53;;;;;;;1.70;1.60;;;17.60;99.90;;;;;;5037691;28;20384;-81
2022/09/03 00:20:43;;;;;;;1.97;1.77;;;17.70;99.90;;;;;;5038217;28;20427;-80
2022/09/03 00:23:30;;;;;;;1.77;1.67;;;17.60;99.90;;;;;;5037851;28;20451;-81
2022/09/03 00:26:24;;;;;;;3.37;1.87;;;17.50;99.90;;;;;;5032947;28;20727;-81
2022/09/03 00:29:15;;;;;;;2.10;1.87;;;17.50;99.90;;;;;;5032300;28;20476;-80
2022/09/03 00:32:09;;;;;;;2.20;2.00;;;17.40;99.90;;;;;;5039157;28;20404;-81
2022/09/03 00:35:01;;;;;;;1.80;1.70;;;17.30;99.90;;;;;;5030217;28;20404;-81
2022/09/03 00:37:45;;;;;;;2.50;2.10;;;17.10;99.90;;;;;;5029908;28;20395;-80
2022/09/03 00:40:47;;;;;;;2.30;2.10;;;16.90;99.90;;;;;;5015440;28;20427;-81
2022/09/03 00:44:02;;;;;;;2.03;1.83;;;16.70;99.90;;;;;;5014702;28;20447;-81
2022/09/03 00:47:14;;;;;;;2.20;2.00;;;16.60;99.90;;;;;;5018210;28;20392;-81
2022/09/03 00:50:14;;;;;;;1.80;1.70;;;16.70;99.90;;;;;;5015662;28;20387;-80
2022/09/03 00:53:15;;;;;;;2.47;2.27;;;16.70;99.90;;;;;;5030484;28;20814;-81
2022/09/03 00:56:19;;;;;;;2.20;2.10;;;16.70;99.90;;;;;;5030540;28;20418;-81
2022/09/03 00:59:23;;;;;;;2.10;1.90;;;16.80;99.90;;;;;;5016560;28;20411;-80
2022/09/03 01:02:28;;;;;;;2.23;2.07;;;16.90;99.90;;;;;;5023455;28;20379;-81
2022/09/03 01:05:43;;;;;;;1.90;1.80;;;16.90;99.90;;;;;;5030794;28;20455;-81
2022/09/03 01:08:53;;;;;;;8.60;2.60;;;16.70;99.90;;;;;;5030086;28;20452;-81
2022/09/03 01:12:12;;;;;;;3.00;2.00;;;16.50;99.90;;;;;;5030817;28;20415;-81
2022/09/03 01:15:07;;;;;;;2.73;2.50;;;16.40;99.90;;;;;;5030604;28;20447;-80
2022/09/03 01:18:17;;;;;;;2.03;1.83;;;16.30;99.90;;;;;;5031033;28;20753;-80
2022/09/03 01:21:35;;;;;;;2.93;2.63;;;16.30;99.90;;;;;;5029951;28;20390;-81
2022/09/03 01:24:58;;;;;;;3.03;2.17;;;16.30;99.90;;;;;;5029908;28;20447;-81
2022/09/03 01:28:15;;;;;;;3.00;2.30;;;16.20;99.90;;;;;;5030407;28;20419;-81
2022/09/03 01:31:25;;;;;;;2.07;1.97;;;16.00;99.90;;;;;;5018968;28;20404;-81
2022/09/03 01:34:35;;;;;;;1.83;1.73;;;16.10;99.90;;;;;;5030954;28;20751;-80
2022/09/03 01:37:36;;;;;;;2.40;2.20;;;16.10;99.90;;;;;;5038556;28;20379;-80
2022/09/03 01:40:35;;;;;;;2.40;2.10;;;16.00;99.90;;;;;;5024146;28;20387;-80
2022/09/03 01:43:35;;;;;;;2.47;2.27;;;16.10;99.90;;;;;;5023979;28;20459;-81
2022/09/03 01:46:26;;;;;;;11.93;2.17;;;16.30;99.90;;;;;;5028482;28;20392;-80
2022/09/03 01:49:32;;;;;;;4.27;2.10;;;15.90;99.90;;;;;;5028737;28;20399;-80
2022/09/03 01:52:26;;;;;;;2.97;2.00;;;15.80;99.90;;;;;;5029301;28;20784;-80
2022/09/03 01:55:37;;;;;;;2.20;2.00;;;15.90;99.90;;;;;;5013733;28;20466;-80
2022/09/03 01:58:36;;;;;;;2.27;2.00;;;15.90;99.90;;;;;;5034555;28;20485;-81
2022/09/03 02:01:28;;;;;;;2.87;2.10;;;16.10;99.90;;;;;;5037200;28;20396;-81
2022/09/03 02:04:22;;;;;;;2.77;2.17;;;16.30;99.90;;;;;;5033249;28;20451;-81
2022/09/03 02:07:06;;;;;;;4.07;2.30;;;16.10;99.90;;;;;;5032272;28;20392;-81
2022/09/03 02:09:50;;;;;;;8.13;2.07;;;16.30;99.90;;;;;;5032882;28;20422;-80
2022/09/03 02:12:37;;;;;;;2.57;1.87;;;16.30;99.90;;;;;;5032963;28;20388;-81
2022/09/03 02:15:24;;;;;;;2.03;1.90;;;16.00;99.90;;;;;;5031262;28;20542;-81
2022/09/03 02:18:15;;;;;;;2.60;2.40;;;15.90;99.90;;;;;;5017602;28;20383;-80
2022/09/03 02:21:00;;;;;;;1.90;1.77;;;15.70;99.90;;;;;;5032583;28;20423;-80
2022/09/03 02:23:44;;;;;;;2.10;1.90;;;15.60;99.90;;;;;;5032563;28;20474;-81
2022/09/03 02:26:29;;;;;;;4.80;2.67;;;15.70;99.90;;;;;;5017753;28;20384;-81
2022/09/03 02:29:16;;;;;;;2.30;2.10;;;15.70;99.90;;;;;;5032512;28;20473;-81
2022/09/03 02:32:00;;;;;;;3.10;2.03;;;15.60;99.90;;;;;;5017150;28;20391;-81
2022/09/03 02:34:45;;;;;;;8.40;2.40;;;15.50;99.90;;;;;;5032357;28;20388;-80
2022/09/03 02:37:30;;;;;;;2.20;2.10;;;15.70;99.90;;;;;;5017219;28;20384;-81
2022/09/03 02:40:16;;;;;;;2.93;2.73;;;15.90;99.90;;;;;;5032461;28;20392;-81
2022/09/03 02:43:03;;;;;;;2.20;2.00;;;16.00;99.90;;;;;;5031833;28;20396;-81
2022/09/03 02:45:51;;;;;;;2.97;2.70;;;15.90;99.90;;;;;;5034779;28;20422;-81
2022/09/03 02:48:36;;;;;;;3.40;2.30;;;16.00;99.90;;;;;;5031928;28;20384;-80
2022/09/03 02:51:20;;;;;;;2.37;2.00;;;15.80;99.90;;;;;;5031972;28;20383;-80
2022/09/03 02:54:07;;;;;;;2.90;2.40;;;15.90;99.90;;;;;;5031544;28;20384;-81
2022/09/03 02:56:52;;;;;;;3.37;2.23;;;15.80;99.90;;;;;;5016306;28;20427;-80
2022/09/03 02:59:38;;;;;;;1.87;1.77;;;15.50;99.90;;;;;;5030735;28;20468;-80
2022/09/03 03:02:23;;;;;;;2.47;2.27;;;15.40;99.90;;;;;;5002865;28;20404;-81
2022/09/03 03:05:12;;;;;;;2.23;2.07;;;15.40;99.90;;;;;;5031185;28;20439;-81
2022/09/03 03:07:57;;;;;;;2.90;2.50;;;15.50;99.90;;;;;;5031427;28;20431;-80
2022/09/03 03:10:43;;;;;;;2.30;2.10;;;15.50;99.90;;;;;;5031081;28;20411;-81
2022/09/03 03:13:28;;;;;;;3.10;2.60;;;15.70;99.90;;;;;;5031837;28;20434;-80
2022/09/03 03:16:15;;;;;;;2.20;2.00;;;15.80;99.90;;;;;;5030935;28;20507;-80
2022/09/03 03:19:01;;;;;;;2.10;2.00;;;15.90;99.90;;;;;;5031697;28;20451;-80
2022/09/03 03:21:45;;;;;;;4.47;1.90;;;16.10;99.90;;;;;;5016784;28;20384;-81
2022/09/03 03:24:29;;;;;;;1.90;1.80;;;16.20;99.90;;;;;;5031482;28;20490;-81
2022/09/03 03:27:13;;;;;;;2.03;1.80;;;16.30;99.90;;;;;;5031259;28;20468;-81
2022/09/03 03:29:58;;;;;;;2.57;2.37;;;16.40;99.90;;;;;;5031040;28;20408;-81
2022/09/03 03:32:43;;;;;;;1.77;1.60;;;16.40;99.90;;;;;;5031427;28;20388;-80
2022/09/03 03:35:27;;;;;;;1.93;1.83;;;16.40;99.90;;;;;;5016148;28;20408;-81
2022/09/03 03:38:12;;;;;;;2.87;2.40;;;16.40;99.90;;;;;;5031078;28;20419;-81
2022/09/03 03:40:57;;;;;;;2.87;2.43;;;16.40;99.90;;;;;;5031413;28;20392;-81
2022/09/03 03:43:42;;;;;;;2.53;2.30;;;16.40;99.90;;;;;;5031115;28;20559;-81
2022/09/03 03:46:31;;;;;;;3.50;2.53;;;16.40;99.90;;;;;;5029829;28;20511;-81
2022/09/03 03:49:16;;;;;;;2.10;1.90;;;16.40;99.90;;;;;;5029279;28;20395;-80
2022/09/03 03:52:03;;;;;;;3.63;2.13;;;16.30;99.90;;;;;;5030071;28;20403;-81
2022/09/03 03:54:49;;;;;;;2.30;2.13;;;16.30;99.90;;;;;;5029411;28;20443;-81
2022/09/03 03:57:33;;;;;;;2.60;2.00;;;16.30;99.90;;;;;;5015675;28;20427;-81
2022/09/03 04:00:18;;;;;;;3.10;2.20;;;16.30;99.90;;;;;;5031375;28;20392;-80
2022/09/03 04:03:03;;;;;;;2.50;2.30;;;16.30;99.90;;;;;;5030370;28;20508;-81
2022/09/03 04:05:59;;;;;;;2.63;2.40;;;16.30;99.90;;;;;;5031100;28;20432;-81
2022/09/03 04:08:45;;;;;;;2.57;2.30;;;16.30;99.90;;;;;;5030860;28;20395;-80
2022/09/03 04:11:29;;;;;;;2.47;2.23;;;16.30;99.90;;;;;;5015882;28;20408;-79
2022/09/03 04:14:14;;;;;;;2.23;2.00;;;16.20;99.90;;;;;;5030637;28;20431;-80
2022/09/03 04:16:58;;;;;;;1.80;1.70;;;16.10;99.90;;;;;;5031060;28;20451;-81
2022/09/03 04:19:42;;;;;;;2.47;2.27;;;16.10;99.90;;;;;;5031338;28;20443;-81
2022/09/03 04:22:28;;;;;;;2.23;2.03;;;16.10;99.90;;;;;;5030304;28;20431;-81
2022/09/03 04:25:13;;;;;;;2.37;2.27;;;16.10;99.90;;;;;;5030359;28;20507;-81
2022/09/03 04:27:57;;;;;;;2.17;1.97;;;16.00;99.90;;;;;;5030287;28;20400;-80
2022/09/03 04:30:41;;;;;;;2.87;2.23;;;16.00;99.90;;;;;;5031208;28;20431;-81
2022/09/03 04:33:25;;;;;;;2.70;2.50;;;16.10;99.90;;;;;;5031011;28;20411;-81
2022/09/03 04:36:13;;;;;;;2.40;2.20;;;16.00;99.90;;;;;;5030297;28;20396;-80
2022/09/03 04:39:00;;;;;;;2.73;2.37;;;16.00;99.90;;;;;;5015543;28;20536;-81
2022/09/03 04:41:44;;;;;;;4.60;2.53;;;16.00;99.90;;;;;;5030573;28;20495;-81
2022/09/03 04:44:30;;;;;;;2.57;2.17;;;16.00;99.90;;;;;;5029978;28;20467;-81
2022/09/03 04:47:15;;;;;;;2.20;2.10;;;16.00;99.90;;;;;;5030932;28;20384;-81
2022/09/03 04:50:00;;;;;;;2.70;1.80;;;16.00;99.90;;;;;;5030515;28;20408;-81
2022/09/03 04:52:45;;;;;;;2.03;1.83;;;16.10;99.90;;;;;;5016288;28;20384;-81
2022/09/03 04:55:35;;;;;;;2.67;2.47;;;16.10;99.90;;;;;;5030484;28;20406;-81
2022/09/03 04:58:19;;;;;;;2.93;2.33;;;16.10;99.90;;;;;;5015843;28;20436;-80
2022/09/03 05:01:08;;;;;;;3.20;2.13;;;16.10;99.90;;;;;;5029911;28;20439;-80
2022/09/03 05:03:52;;;;;;;1.80;1.70;;;16.00;99.90;;;;;;5030772;28;20447;-80
2022/09/03 05:06:37;;;;;;;2.90;2.50;;;16.10;99.90;;;;;;5029828;28;20393;-81
2022/09/03 05:09:22;;;;;;;2.40;2.20;;;16.10;99.90;;;;;;5030461;28;20387;-81
2022/09/03 05:12:06;;;;;;;2.83;2.57;;;16.10;99.90;;;;;;5029783;28;20521;-81
2022/09/03 05:14:51;;;;;;;2.40;2.20;;;16.00;99.90;;;;;;5030086;28;20482;-81
2022/09/03 05:17:37;;;;;;;5.60;2.47;;;16.00;99.90;;;;;;5029731;28;20456;-78
2022/09/03 05:20:22;;;;;;;3.23;2.43;;;16.00;99.90;;;;;;5031311;28;20403;-81
2022/09/03 05:23:06;;;;;;;12.27;2.63;;;16.00;99.90;;;;;;5000283;28;20407;-80
2022/09/03 05:26:01;;;;;;;4.30;3.43;;;16.00;99.90;;;;;;5029404;28;20388;-81
2022/09/03 05:28:46;;;;;;;3.80;2.77;;;16.10;99.90;;;;;;5029454;28;20419;-81
2022/09/03 05:31:31;;;;;;;2.33;2.13;;;16.10;99.90;;;;;;5029202;28;20388;-81
2022/09/03 05:34:15;;;;;;;2.30;2.10;;;16.10;99.90;;;;;;5030939;28;20384;-81
2022/09/03 05:36:59;;;;;;;3.00;2.73;;;16.10;99.90;;;;;;5034288;28;20424;-81
2022/09/03 05:39:45;;;;;;;3.47;2.53;;;16.10;99.90;;;;;;5034360;28;20387;-81
2022/09/03 05:42:31;;;;;;;10.90;3.20;;;16.20;99.90;;;;;;5033801;28;20391;-81
2022/09/03 05:45:15;;;;;;;7.20;4.17;;;16.20;99.90;;;;;;5019781;28;20814;-81
2022/09/03 05:48:00;;;;;;;6.10;3.47;;;16.10;99.90;;;;;;5034638;28;20399;-81
2022/09/03 05:50:45;;;;;;;4.70;3.30;;;16.20;99.90;;;;;;5033877;28;20388;-80
2022/09/03 05:53:33;;;;;;;4.67;2.70;;;16.30;99.90;;;;;;5004021;28;20746;-80
2022/09/03 05:56:21;;;;;;;6.77;2.83;;;16.40;99.90;;;;;;5032418;28;20422;-81
2022/09/03 05:59:08;;;;;;;3.10;2.90;;;16.40;99.90;;;;;;5033099;28;20419;-81
2022/09/03 06:01:52;;;;;;;7.30;2.33;;;16.50;99.90;;;;;;5033926;28;20444;-81
2022/09/03 06:04:37;;;;;;;2.60;2.30;;;16.50;99.90;;;;;;5034400;28;20555;-81
2022/09/03 06:07:22;;;;;;;2.20;2.10;;;16.70;99.90;;;;;;5032850;28;20407;-81
2022/09/03 06:10:06;;;;;;;3.97;2.03;;;16.80;99.90;;;;;;5032844;28;20388;-81
2022/09/03 06:12:51;;;;;;;2.30;2.20;;;16.80;99.90;;;;;;5033983;28;20387;-80
2022/09/03 06:15:35;;;;;;;2.40;2.20;;;16.80;99.90;;;;;;5033480;28;20463;-81
2022/09/03 06:18:19;;;;;;;3.10;2.83;;;17.00;99.90;;;;;;5037232;28;20399;-81
2022/09/03 06:21:06;;;;;;;3.37;2.63;;;17.00;99.90;;;;;;5039585;28;20448;-81
2022/09/03 06:23:55;;;;;;;4.63;2.20;;;17.00;99.90;;;;;;5040481;28;20462;-81
2022/09/03 06:26:40;;;;;;;2.43;2.00;;;16.90;99.90;;;;;;5036026;28;20423;-80
2022/09/03 06:29:24;;;;;;;2.03;1.90;;;17.00;99.90;;;;;;5033403;28;20523;-81
2022/09/03 06:32:09;;;;;;;3.23;2.10;;;16.80;99.90;;;;;;5019204;28;20451;-81
2022/09/03 06:34:54;;;;;;;4.50;2.40;;;16.70;99.90;;;;;;5018448;28;20472;-80
2022/09/03 06:37:39;;;;;;;1.90;1.80;;;16.70;99.90;;;;;;5033042;28;20412;-81
2022/09/03 06:40:25;;;;;;;3.10;2.17;;;17.00;99.90;;;;;;5033352;28;20408;-81
2022/09/03 06:43:10;;;;;;;1.90;1.80;;;16.90;99.90;;;;;;5033047;28;20412;-80
2022/09/03 06:45:57;;;;;;;2.37;1.90;;;16.80;99.90;;;;;;5022352;28;20424;-81
2022/09/03 06:48:42;;;;;;;2.30;2.10;;;16.90;99.90;;;;;;5038783;28;20391;-81
2022/09/03 06:51:29;;;;;;;2.77;2.27;;;16.90;99.90;;;;;;5023574;28;20485;-81
2022/09/03 06:54:14;;;;;;;2.27;1.83;;;17.10;99.90;;;;;;5031804;28;20392;-81
2022/09/03 06:56:58;;;;;;;2.70;2.10;;;17.20;99.90;;;;;;5032560;28;20447;-81
2022/09/03 06:59:43;;;;;;;3.90;2.20;;;17.00;99.90;;;;;;5033141;28;20384;-81
2022/09/03 07:02:27;;;;;;;2.00;1.90;;;17.10;99.90;;;;;;5033210;28;20373;-80
2022/09/03 07:05:12;;;;;;;1.90;1.77;;;17.30;99.90;;;;;;5017261;28;20515;-81
2022/09/03 07:07:57;;;;;;;2.43;2.00;;;17.60;99.90;;;;;;5032315;28;20452;-81
2022/09/03 07:10:46;;;;;;;2.33;2.00;;;17.70;99.90;;;;;;5031891;28;20391;-79
2022/09/03 07:13:32;;;;;;;3.00;2.37;;;18.00;99.90;;;;;;5031097;28;20408;-81
2022/09/03 07:16:20;;;;;;;3.13;2.83;;;18.10;99.90;;;;;;5031861;28;20483;-81
2022/09/03 07:19:06;;;;;;;2.00;1.80;;;18.40;99.90;;;;;;5016994;28;20936;-81
2022/09/03 07:21:50;;;;;;;3.67;1.87;;;18.40;99.90;;;;;;5031962;28;20419;-80
2022/09/03 07:24:36;;;;;;;3.10;2.00;;;18.30;99.90;;;;;;5031070;28;20447;-81
2022/09/03 07:27:21;;;;;;;2.20;1.60;;;18.40;99.90;;;;;;5016755;28;20395;-80
2022/09/03 07:30:09;;;;;;;9.70;2.27;;;18.60;99.90;;;;;;5016276;28;20387;-80
2022/09/03 07:32:53;;;;;;;2.17;2.03;;;18.60;99.90;;;;;;5031697;28;20396;-80
2022/09/03 07:35:38;;;;;;;1.50;1.40;;;18.40;99.90;;;;;;5016278;28;20396;-81
2022/09/03 07:38:23;;;;;;;2.07;1.97;;;18.40;99.90;;;;;;5031734;28;20418;-81
2022/09/03 07:41:08;;;;;;;2.30;2.13;;;18.40;99.90;;;;;;5031099;28;20751;-80
2022/09/03 07:43:53;;;;;;;2.50;2.17;;;18.50;99.90;;;;;;5033064;28;20959;-81
2022/09/03 07:46:39;;;;;;;2.13;1.93;;;18.30;99.90;;;;;;5030937;28;20417;-82
2022/09/03 07:49:25;;;;;;;10.80;2.57;;;18.20;99.90;;;;;;5017289;28;20467;-80
2022/09/03 07:52:09;;;;;;;2.77;2.47;;;18.30;99.90;;;;;;5032678;28;20403;-81
2022/09/03 07:54:54;;;;;;;3.23;2.70;;;18.70;99.90;;;;;;5032017;28;20391;-81
2022/09/03 07:57:39;;;;;;;3.40;2.30;;;18.70;99.90;;;;;;5015980;28;20455;-81
2022/09/03 08:00:24;;;;;;;3.03;2.80;;;18.90;99.90;;;;;;5028250;28;20394;-81
2022/09/03 08:03:08;;;;;;;1.50;1.40;;;19.20;99.90;;;;;;5029985;28;20427;-81
2022/09/03 08:05:54;;;;;;;2.27;2.10;;;19.20;99.90;;;;;;5030131;28;20449;-81
2022/09/03 08:08:39;;;;;;;4.90;2.07;;;19.40;99.90;;;;;;5030398;28;20428;-81
2022/09/03 08:11:25;;;;;;;2.27;2.00;;;19.30;99.90;;;;;;5030319;28;20451;-80
2022/09/03 08:14:11;;;;;;;2.00;1.73;;;19.50;99.90;;;;;;5021820;28;20403;-81
2022/09/03 08:16:58;;;;;;;5.73;2.23;;;19.20;99.90;;;;;;5016001;28;20396;-80
2022/09/03 08:19:44;;;;;;;2.40;2.23;;;19.40;99.90;;;;;;5008439;28;20420;-81
2022/09/03 08:22:29;;;;;;;1.70;1.60;;;19.50;99.90;;;;;;5008513;28;20408;-80
2022/09/03 08:25:13;;;;;;;3.47;2.83;;;19.60;99.90;;;;;;5008883;28;20523;-80
2022/09/03 08:27:59;;;;;;;4.43;2.73;;;19.80;99.90;;;;;;5009404;28;20396;-80
2022/09/03 08:30:44;;;;;;;4.20;2.47;;;20.00;99.90;;;;;;5009833;28;20490;-80
2022/09/03 08:33:36;;;;;;;2.40;2.20;;;20.10;99.90;;;;;;4980742;28;20427;-80
2022/09/03 08:36:24;;;;;;;2.70;2.20;;;19.90;99.90;;;;;;5007954;28;20432;-80
2022/09/03 08:39:10;;;;;;;1.83;1.73;;;20.10;99.90;;;;;;5007639;28;20553;-81
2022/09/03 08:42:15;;;;;;;2.10;1.90;;;20.10;99.90;;;;;;5008075;28;20408;-80
2022/09/03 08:45:02;;;;;;;7.30;2.77;;;20.20;99.90;;;;;;4994785;28;20471;-78
2022/09/03 08:48:04;;;;;;;2.80;2.17;;;20.10;99.90;;;;;;5006926;28;20384;-80
2022/09/03 08:50:54;;;;;;;2.67;2.47;;;20.20;99.90;;;;;;5008579;28;20407;-80
2022/09/03 08:53:47;;;;;;;6.00;1.93;;;20.20;99.90;;;;;;5029337;28;20488;-81
2022/09/03 08:56:38;;;;;;;2.20;2.00;;;20.20;99.90;;;;;;5000670;28;20431;-81
2022/09/03 08:59:23;;;;;;;2.33;2.13;;;20.40;99.90;;;;;;5029324;28;20400;-79
2022/09/03 09:02:43;;;;;;;2.70;1.90;;;20.30;99.90;;;;;;5028718;28;20383;-79
2022/09/03 09:05:58;;;;;;;2.00;1.90;;;20.30;99.90;;;;;;4986766;28;20489;-80
2022/09/03 09:09:01;;;;;;;2.27;2.07;;;20.80;99.90;;;;;;4986251;28;20389;-81
2022/09/03 09:12:05;;;;;;;2.87;1.77;;;20.50;99.90;;;;;;5007261;28;20393;-81
2022/09/03 09:15:04;;;;;;;4.00;2.17;;;20.60;99.90;;;;;;4994093;28;20455;-80
2022/09/03 09:18:14;;;;;;;2.27;2.00;;;20.60;99.90;;;;;;5006974;28;20420;-80
2022/09/03 09:21:14;;;;;;;2.10;2.00;;;20.90;99.90;;;;;;4994291;28;20416;-82
2022/09/03 09:24:03;;;;;;;2.10;2.00;;;21.00;99.90;;;;;;4995092;28;21118;-78
2022/09/03 09:26:48;;;;;;;2.13;2.03;;;21.10;99.90;;;;;;5008917;28;20473;-79
2022/09/03 09:29:38;;;;;;;4.13;2.37;;;21.20;99.90;;;;;;5008654;28;20388;-80
2022/09/03 09:32:22;;;;;;;2.63;1.90;;;21.10;99.90;;;;;;5009032;28;20416;-81
2022/09/03 09:35:09;;;;;;;1.73;1.63;;;21.40;99.90;;;;;;5008926;28;20404;-81
2022/09/03 09:37:56;;;;;;;2.33;2.07;;;21.60;99.90;;;;;;5030609;28;20604;-81
2022/09/03 09:40:43;;;;;;;2.00;1.83;;;21.80;99.90;;;;;;4988424;28;20775;-80
2022/09/03 09:43:28;;;;;;;1.80;1.70;;;21.90;99.90;;;;;;5030058;28;20506;-80
2022/09/03 09:46:19;;;;;;;1.90;1.80;;;21.90;99.90;;;;;;5030167;28;20395;-81
2022/09/03 09:49:28;;;;;;;5.33;4.93;;;22.50;99.90;;;;;;5013383;28;20483;-79
2022/09/03 09:52:15;;;;;;;4.40;2.07;;;22.60;99.90;;;;;;5027998;28;20395;-80
2022/09/03 09:55:13;;;;;;;4.33;1.87;;;23.00;99.80;;;;;;5027252;28;20395;-80
2022/09/03 09:58:08;;;;;;;3.30;2.20;;;23.10;99.30;;;;;;5027731;28;20498;-80
2022/09/03 10:00:59;;;;;;;3.80;2.00;;;22.70;98.30;;;;;;5027768;28;20465;-80
2022/09/03 10:03:54;;;;;;;2.30;2.07;;;23.10;97.90;;;;;;5027531;28;20495;-80
2022/09/03 10:06:55;;;;;;;2.50;2.30;;;23.70;96.00;;;;;;5013766;28;20403;-81
2022/09/03 10:09:40;;;;;;;1.93;1.73;;;24.00;94.70;;;;;;5014019;28;20691;-81
2022/09/03 10:12:44;;;;;;;2.27;2.07;;;23.90;94.40;;;;;;5013691;28;20416;-82
2022/09/03 10:15:40;;;;;;;2.40;2.20;;;23.60;93.90;;;;;;5016816;28;20488;-79
2022/09/03 10:18:47;;;;;;;2.20;1.90;;;23.60;95.40;;;;;;5009143;28;20444;-79
2022/09/03 10:21:53;;;;;;;2.47;2.27;;;23.60;94.40;;;;;;4998208;28;20400;-82
2022/09/03 10:24:52;;;;;;;3.40;2.80;;;23.50;93.50;;;;;;4998780;28;20458;-81
2022/09/03 10:27:37;;;;;;;4.57;1.73;;;23.10;94.70;;;;;;4985944;28;20439;-80
2022/09/03 10:30:22;;;;;;;3.17;2.87;;;23.90;93.90;;;;;;5014886;28;20856;-79
2022/09/03 10:33:21;;;;;;;3.97;2.20;;;24.50;93.30;;;;;;5002433;28;20396;-80
2022/09/03 10:36:18;;;;;;;7.70;1.93;;;24.90;92.10;;;;;;5004910;28;20522;-79
2022/09/03 10:39:17;;;;;;;1.77;1.67;;;24.40;91.00;;;;;;4949656;28;20535;-79
2022/09/03 10:42:20;;;;;;;2.27;2.07;;;24.10;91.40;;;;;;5005487;28;20459;-80
2022/09/03 10:45:42;;;;;;;2.63;2.00;;;23.80;91.30;;;;;;5013485;28;20451;-80
2022/09/03 10:48:58;;;;;;;4.70;4.30;;;24.00;93.30;;;;;;5001242;28;20392;-80
2022/09/03 10:51:52;;;;;;;2.80;2.60;;;24.40;91.70;;;;;;5012114;28;20411;-81
2022/09/03 10:54:54;;;;;;;3.17;2.00;;;24.30;90.50;;;;;;5011756;28;20443;-81
2022/09/03 10:58:03;;;;;;;3.70;3.40;;;24.30;90.10;;;;;;5012424;28;20474;-82
2022/09/03 11:00:53;;;;;;;2.50;2.30;;;24.70;90.20;;;;;;4996797;28;20439;-81
2022/09/03 11:03:47;;;;;;;2.47;2.27;;;24.50;90.20;;;;;;5013074;28;20499;-79
2022/09/03 11:06:49;;;;;;;2.57;2.37;;;24.70;88.80;;;;;;4981532;28;20397;-81
2022/09/03 11:09:42;;;;;;;4.90;2.37;;;24.80;88.60;;;;;;5013145;28;20416;-80
2022/09/03 11:12:32;;;;;;;1.60;1.50;;;24.50;88.30;;;;;;4998098;28;20395;-80
2022/09/03 11:15:30;;;;;;;1.90;1.80;;;25.20;86.50;;;;;;5022194;28;20454;-80
2022/09/03 11:18:44;;;;;;;2.40;2.20;;;25.60;84.40;;;;;;5031911;28;20450;-80
2022/09/03 11:21:33;;;;;;;3.17;1.90;;;25.50;84.00;;;;;;5031311;28;20473;-81
2022/09/03 11:24:22;;;;;;;2.90;2.03;;;25.80;85.50;;;;;;5031579;28;20539;-80
2022/09/03 11:27:30;;;;;;;2.40;2.20;;;25.90;82.20;;;;;;5031371;28;20461;-81
2022/09/03 11:30:24;;;;;;;2.23;1.90;;;26.00;81.00;;;;;;5030509;28;20445;-80
2022/09/03 11:33:10;;;;;;;3.20;1.70;;;26.50;80.50;;;;;;5031012;28;20407;-81
2022/09/03 11:35:59;;;;;;;3.27;1.90;;;27.70;75.10;;;;;;5030875;28;20398;-81
2022/09/03 11:38:45;;;;;;;8.30;2.10;;;28.20;73.40;;;;;;5030821;28;20555;-79
2022/09/03 11:41:35;;;;;;;1.83;1.73;;;28.20;71.20;;;;;;5032188;28;20460;-82
2022/09/03 11:44:19;;;;;;;2.10;2.00;;;27.40;71.80;;;;;;5009171;28;20495;-81
2022/09/03 11:47:21;;;;;;;6.10;2.30;;;26.10;73.20;;;;;;5007165;28;20424;-80
2022/09/03 11:50:19;;;;;;;2.20;2.00;;;25.30;77.40;;;;;;5005705;28;20411;-82
2022/09/03 11:53:27;;;;;;;2.50;2.30;;;25.50;77.70;;;;;;4988167;28;20476;-83
2022/09/03 11:56:18;;;;;;;2.40;2.20;;;25.80;77.20;;;;;;4987511;28;20440;-82
2022/09/03 11:59:18;;;;;;;2.70;2.50;;;25.10;78.10;;;;;;4991147;28;20421;-80
2022/09/03 12:02:17;;;;;;;2.43;2.10;;;25.40;80.60;;;;;;4990182;28;20418;-81
2022/09/03 12:05:15;;;;;;;4.30;2.63;;;25.30;79.10;;;;;;4964949;28;20905;-83
2022/09/03 12:08:40;;;;;;;2.27;2.07;;;25.30;80.40;;;;;;4979771;28;20547;-82
2022/09/03 12:11:43;;;;;;;4.60;2.70;;;25.60;79.40;;;;;;4958471;28;20495;-82
2022/09/03 12:14:49;;;;;;;2.50;2.30;;;25.80;79.10;;;;;;4982126;28;20472;-83
2022/09/03 12:21:07;;;;;;;2.40;2.20;;;25.30;79.80;;;;;;4980735;28;20396;-84
2022/09/03 12:23:53;;;;;;;3.17;2.40;;;25.10;80.30;;;;;;4980333;28;20845;-82
2022/09/03 12:26:40;;;;;;;2.20;2.00;;;25.60;80.30;;;;;;4980732;28;20385;-81
2022/09/03 12:29:27;;;;;;;3.70;2.10;;;25.40;80.00;;;;;;4980915;28;20433;-82
2022/09/03 12:32:13;;;;;;;4.63;2.63;;;25.60;81.00;;;;;;4966912;28;20381;-82
2022/09/03 12:35:08;;;;;;;2.53;2.40;;;25.40;80.50;;;;;;4991864;28;20420;-81
2022/09/03 12:37:53;;;;;;;2.30;2.10;;;25.30;82.90;;;;;;4971401;28;20377;-79
2022/09/03 12:40:42;;;;;;;2.87;2.47;;;25.10;82.60;;;;;;4995682;28;20448;-83
2022/09/03 12:43:28;;;;;;;3.27;2.97;;;25.30;85.00;;;;;;5002099;28;20447;-82
2022/09/03 12:46:14;;;;;;;3.70;2.70;;;26.10;81.10;;;;;;4994516;28;20396;-83
2022/09/03 12:49:04;;;;;;;2.60;2.40;;;25.50;81.50;;;;;;4995739;28;20396;-82
2022/09/03 12:51:48;;;;;;;3.67;2.30;;;25.00;83.20;;;;;;4999800;28;20501;-82
2022/09/03 12:54:41;;;;;;;4.23;2.13;;;25.00;84.30;;;;;;5000314;28;20462;-81
2022/09/03 12:57:33;;;;;;;2.90;2.43;;;25.10;85.30;;;;;;4993185;28;20441;-81
2022/09/03 13:00:18;;;;;;;2.60;2.40;;;24.90;85.90;;;;;;4992617;28;20428;-82
2022/09/03 13:03:11;;;;;;;2.87;2.50;;;24.70;86.70;;;;;;4991440;28;20518;-83
2022/09/03 13:05:59;;;;;;;2.87;2.37;;;24.70;86.30;;;;;;4977707;28;20393;-83
2022/09/03 13:08:49;;;;;;;4.23;2.87;;;24.70;86.40;;;;;;4988480;28;20801;-80
2022/09/03 13:11:36;;;;;;;2.40;2.30;;;24.70;88.10;;;;;;5013613;28;20427;-82
2022/09/03 13:14:21;;;;;;;2.50;2.30;;;24.50;88.80;;;;;;5020956;28;20468;-81
2022/09/03 13:17:19;;;;;;;3.10;2.50;;;24.70;90.50;;;;;;5040700;28;20449;-83
2022/09/03 13:20:28;;;;;;;8.00;4.40;;;24.90;90.30;;;;;;5038549;28;20387;-81
2022/09/03 13:23:31;;;;;;;2.97;2.77;;;24.70;90.60;;;;;;5038341;28;20383;-81
2022/09/03 13:26:43;;;;;;;2.77;2.57;;;24.60;90.50;;;;;;5039983;28;20386;-83
2022/09/03 13:29:51;;;;;;;2.80;2.60;;;24.90;90.40;;;;;;5022480;28;20407;-82
2022/09/03 13:32:59;;;;;;;2.60;2.40;;;25.30;90.10;;;;;;5039223;28;20712;-83
2022/09/03 13:36:10;;;;;;;4.83;2.60;;;25.30;90.30;;;;;;5008000;28;20396;-83
2022/09/03 13:39:05;;;;;;;2.33;2.23;;;24.90;90.60;;;;;;5025449;28;20437;-83
2022/09/03 13:41:56;;;;;;;3.00;2.73;;;24.60;91.60;;;;;;5018814;28;20376;-83
2022/09/03 13:44:48;;;;;;;2.67;2.47;;;24.60;92.00;;;;;;5025988;28;20467;-83
2022/09/03 13:50:20;;;;;;;3.10;2.60;;;24.50;92.60;;;;;;5028552;28;20426;-82
2022/09/03 13:51:02;;;;;;;2.90;2.60;;;24.70;92.40;;;;;;5005619;28;20388;-83
2022/09/03 13:54:10;;;;;;;3.50;3.10;;;24.70;93.10;;;;;;5010267;28;20886;-83
2022/09/03 13:57:01;;;;;;;3.20;2.90;;;25.30;92.60;;;;;;5040827;28;20802;-83
2022/09/03 14:00:10;;;;;;;3.30;3.10;;;26.10;91.70;;;;;;5042287;28;20866;-83
2022/09/03 14:03:11;;;;;;;48.60;45.37;;;26.60;90.30;;;;;;5021492;28;20418;-83
2022/09/03 14:06:19;;;;;;;4.37;3.40;;;25.80;90.20;;;;;;5016814;28;20402;-82
2022/09/03 14:09:22;;;;;;;4.50;4.10;;;25.50;90.60;;;;;;5010195;28;20407;-81
2022/09/03 14:12:18;;;;;;;3.13;2.83;;;25.30;91.40;;;;;;4999365;28;20384;-83
2022/09/03 14:15:40;;;;;;;3.20;2.90;;;25.10;91.30;;;;;;5016571;28;20879;-85
2022/09/03 14:18:49;;;;;;;4.37;2.93;;;25.00;92.10;;;;;;5011226;28;20459;-83
2022/09/03 14:21:43;;;;;;;2.97;2.57;;;24.70;92.00;;;;;;5003431;28;20392;-83
2022/09/03 14:24:56;;;;;;;2.57;2.40;;;24.70;92.60;;;;;;5004777;28;20455;-80
2022/09/03 14:27:41;;;;;;;2.97;2.53;;;25.00;92.90;;;;;;5001411;28;20412;-81
2022/09/03 14:30:54;;;;;;;3.13;2.93;;;24.80;92.60;;;;;;4980782;28;20429;-82
2022/09/03 14:33:54;;;;;;;2.50;2.40;;;25.10;92.80;;;;;;4980212;28;20436;-84
2022/09/03 14:36:56;;;;;;;2.63;2.40;;;25.40;93.70;;;;;;4980096;28;20381;-82
2022/09/03 14:39:54;;;;;;;3.43;2.40;;;25.80;92.20;;;;;;4967290;28;20906;-82
2022/09/03 14:43:03;;;;;;;3.53;3.23;;;25.80;91.20;;;;;;4980895;28;20388;-82
2022/09/03 14:46:18;;;;;;;7.87;2.87;;;26.00;91.30;;;;;;4967921;28;20413;-84
2022/09/03 14:49:30;;;;;;;3.67;3.10;;;26.20;91.90;;;;;;4991912;28;20385;-80
2022/09/03 14:52:47;;;;;;;3.00;2.80;;;26.10;94.50;;;;;;4991358;28;20389;-79
2022/09/03 14:56:08;;;;;;;7.50;6.90;;;26.00;90.90;;;;;;4991714;28;20429;-84
2022/09/03 14:59:13;;;;;;;3.80;3.40;;;26.40;92.50;;;;;;4992148;28;20405;-82